LSME - Emmen, Switzerland
Distance from HB9FEE: SW 14km
Updated: Sat, 25-Feb-2017 10:50pm CET
Clear
Clear
 Wind from varies
Wind: varies 4 km/h
Temperature: 2°C
Dew Point: 0°C
Humidity: 87%
Barometer: 1020 hPa
Clouds: Clear
Visibility: 16 miles
2017/02/25 21:50 LSME 252150Z AUTO VRB02KT 9999NDV NCD 02/M00 Q1020 RMK
LSZC - Buochs, Switzerland
Distance from HB9FEE: S 25km
Updated: Sat, 25-Feb-2017 11:20pm CET
Partly Cloudy
Partly Cloudy
 Wind from NE
Wind: NE 17 km/h
Temperature: 1°C
Wind Chill: -3°C
Dew Point: -1°C
Humidity: 87%
Barometer: 1020 hPa
Clouds: Partly Cloudy
Visibility: 10 km
2017/02/25 22:20 LSZC 252220Z AUTO 05009KT 030V140 9999 NSC 01/M01 Q1020
 
LSMA - Alpnach, Switzerland
Distance from HB9FEE: SSW 29km
Updated: Sat, 25-Feb-2017 10:50pm CET
Clear
Clear
 Wind from varies
Wind: varies 2 km/h
Temperature: 0°C
Dew Point: -1°C
Humidity: 93%
Barometer: 1020 hPa
Clouds: Clear
Visibility: 16 miles
2017/02/25 21:50 LSMA 252150Z AUTO VRB01KT 9999NDV NCD 00/M01 Q1020 RMK
LSMD - Dubendorf, Switzerland
Distance from HB9FEE: NE 29km
Updated: Sat, 25-Feb-2017 10:50pm CET
Clear
Clear
 Wind from calm
Wind: Calm
Temperature: 1°C
Dew Point: -1°C
Humidity: 87%
Barometer: 1020 hPa
Clouds: Clear
Visibility: 16 miles
2017/02/25 21:50 LSMD 252150Z AUTO 00000KT 9999NDV NCD 01/M01 Q1020 RMK
 
LSZH - Zurich-Kloten (a, Switzerland
Distance from HB9FEE: NNE 33km
Updated: Sat, 25-Feb-2017 11:20pm CET
Clear
Clear
 Wind from ESE
Wind: ESE 6 km/h
Temperature: 0°C
Dew Point: -3°C
Humidity: 80%
Barometer: 1020 hPa
Summary: Clear
Visibility: greater than 10 km
2017/02/25 22:20 LSZH 252220Z 12003KT CAVOK 00/M03 Q1020 NOSIG
LSMM - Meiringen, Switzerland
Distance from HB9FEE: SSW 54km
Updated: Sat, 25-Feb-2017 10:50pm CET
Clear
Clear
 Wind from E
Wind: E 6 km/h
Temperature: -1°C
Dew Point: -2°C
Humidity: 93%
Barometer: 1020 hPa
Clouds: Clear
Visibility: 16 miles
2017/02/25 21:50 LSMM 252150Z AUTO 08003KT 060V140 9999NDV NCD M01/M02 Q1020 RMK
 
LSZB - Bern/Belp, Switzerland
Distance from HB9FEE: WSW 76km
Updated: Sat, 25-Feb-2017 11:20pm CET
Partly Cloudy
Partly Cloudy
 Wind from varies
Wind: varies 2 km/h
Temperature: -1°C
Dew Point: -3°C
Humidity: 86%
Barometer: 1020 hPa
Clouds: Partly Cloudy
Visibility: 10 km
2017/02/25 22:20 LSZB 252220Z AUTO VRB01KT 9999 NSC M01/M03 Q1020
LSZG - Grenchen, Switzerland
Distance from HB9FEE: W 76km
Updated: Sat, 25-Feb-2017 11:20pm CET
Clear
Clear
 Wind from calm
Wind: Calm
Temperature: -1°C
Dew Point: -3°C
Humidity: 86%
Barometer: 1020 hPa
Summary: Clear
Visibility: greater than 10 km
2017/02/25 22:20 LSZG 252220Z AUTO 00000KT CAVOK M01/M03 Q1020
 
LFSB - Bale/Mulhouse, France
Distance from HB9FEE: NW 82km
Updated: Sat, 25-Feb-2017 11:30pm CET
Clear
Clear
 Wind from SSW
Wind: SSW 6 km/h
Temperature: 1°C
Dew Point: -1°C
Humidity: 87%
Barometer: 1019 hPa
Summary: Clear
Visibility: greater than 10 km
2017/02/25 22:30 LFSB 252230Z 21003KT CAVOK 01/M01 Q1019 NOSIG
LSZR - Rheineck/Altenrh, Switzerland
Distance from HB9FEE: ENE 92km
Updated: Sat, 25-Feb-2017 11:20pm CET
Clear
Clear
 Wind from SW
Wind: SW 6 km/h
Temperature: 4°C
Dew Point: 0°C
Humidity: 75%
Barometer: 1020 hPa
Summary: Clear
Visibility: greater than 10 km
2017/02/25 22:20 LSZR 252220Z AUTO 23003KT CAVOK 04/00 Q1020
 
LSZL - Locarno, Switzerland
Distance from HB9FEE: SSE 119km
Updated: Sat, 25-Feb-2017 10:50pm CET
Clear
Clear
 Wind from varies
Wind: varies 2 km/h
Temperature: 2°C
Dew Point: -1°C
Humidity: 81%
Barometer: 1023 hPa
Clouds: Clear
Visibility: 16 miles
2017/02/25 21:50 LSZL 252150Z AUTO VRB01KT 9999NDV NCD 02/M01 Q1023 RMK
LSMP - Payerne (mil/Aut, Switzerland
Distance from HB9FEE: WSW 121km
Updated: Sat, 25-Feb-2017 10:50pm CET
Clear
Clear
 Wind from SSW
Wind: SSW 7 km/h
Temperature: 1°C
Wind Chill: -2°C
Dew Point: -2°C
Humidity: 81%
Barometer: 1020 hPa
Clouds: Clear
Visibility: 16 miles
2017/02/25 21:50 LSMP 252150Z AUTO 21004KT 9999NDV NCD 01/M02 Q1020 RMK
 
LSGC - Les Eplatures, Switzerland
Distance from HB9FEE: W 123km
Updated: Sat, 25-Feb-2017 11:20pm CET
Clear
Clear
 Wind from W
Wind: W 4 km/h
Temperature: -2°C
Dew Point: -5°C
Humidity: 80%
Barometer: 1018 hPa
Summary: Clear
Visibility: greater than 10 km
2017/02/25 22:20 LSGC 252220Z AUTO 26002KT CAVOK M02/M05 Q1018
LSZS - Samedan, Switzerland
Distance from HB9FEE: ESE 133km
Updated: Sat, 25-Feb-2017 11:20pm CET
Clear
Clear
 Wind from SSW
Wind: SSW 4 km/h
Temperature: -8°C
Dew Point: -13°C
Humidity: 68%
Barometer: 1020 hPa
Clouds: Clear
Visibility: 10 km
2017/02/25 22:20 LSZS 252220Z AUTO 20002KT 9999 NCD M08/M13 Q1020
 
LSGS - Sion (mil/Civ/Au, Switzerland
Distance from HB9FEE: SW 137km
Updated: Sat, 25-Feb-2017 6:20pm CET
NOT Current
Clear
Clear
 Wind from W
Wind: W 9 km/h
Temperature: 8°C
Wind Chill: 6°C
Dew Point: -2°C
Humidity: 50%
Barometer: 1020 hPa
Summary: Clear
Visibility: greater than 10 km
2017/02/25 17:20 LSGS 251720Z 27005KT CAVOK 08/M02 Q1020
LSZA - Lugano (pvt/Aut), Switzerland
Distance from HB9FEE: SSE 138km
Updated: Sat, 25-Feb-2017 11:20pm CET
Clear
Clear
 Wind from varies
Wind: varies 2 km/h
Temperature: 3°C
Dew Point: -1°C
Humidity: 75%
Barometer: 1023 hPa
Summary: Clear
Visibility: greater than 10 km
2017/02/25 22:20 LSZA 252220Z AUTO VRB01KT CAVOK 03/M01 Q1023